createdAt,value
2022-10-09T00:00:42.352Z,1016.22
2022-10-09T00:01:42.401Z,1016.18
2022-10-09T00:02:42.481Z,1016.20
2022-10-09T00:03:42.520Z,1016.20
2022-10-09T00:04:42.554Z,1016.12
2022-10-09T00:05:42.797Z,1016.16
2022-10-09T00:06:42.658Z,1016.15
2022-10-09T00:07:42.703Z,1016.13
2022-10-09T00:08:42.756Z,1016.13
2022-10-09T00:09:42.807Z,1016.11
2022-10-09T00:10:42.856Z,1016.11
2022-10-09T00:11:42.905Z,1016.16
2022-10-09T00:12:42.958Z,1016.13
2022-10-09T00:13:43.008Z,1016.19
2022-10-09T00:14:43.059Z,1016.14
2022-10-09T00:15:43.181Z,1016.19
2022-10-09T00:16:43.213Z,1016.18
2022-10-09T00:17:43.209Z,1016.24
2022-10-09T00:18:43.259Z,1016.25
2022-10-09T00:19:43.331Z,1016.22
2022-10-09T00:20:43.362Z,1016.22
2022-10-09T00:21:43.411Z,1016.20
2022-10-09T00:22:43.465Z,1016.18
2022-10-09T00:23:43.510Z,1016.16
2022-10-09T00:24:43.570Z,1016.17
2022-10-09T00:25:43.613Z,1016.19
2022-10-09T00:26:43.663Z,1016.18
2022-10-09T00:27:43.713Z,1016.14
2022-10-09T00:28:43.855Z,1016.11
2022-10-09T00:29:43.813Z,1016.09
2022-10-09T00:30:43.879Z,1016.09
2022-10-09T00:31:43.914Z,1016.06
2022-10-09T00:32:43.965Z,1016.08
2022-10-09T00:33:44.016Z,1016.09
2022-10-09T00:34:44.066Z,1016.10
2022-10-09T00:35:44.133Z,1016.10
2022-10-09T00:36:44.168Z,1016.17
2022-10-09T00:37:44.219Z,1016.14
2022-10-09T00:38:44.272Z,1016.18
2022-10-09T00:39:44.317Z,1016.15
2022-10-09T00:40:44.369Z,1016.17
2022-10-09T00:41:44.419Z,1016.20
2022-10-09T00:42:44.469Z,1016.18
2022-10-09T00:43:44.519Z,1016.17
2022-10-09T00:44:44.571Z,1016.15
2022-10-09T00:45:44.644Z,1016.15
2022-10-09T00:46:44.669Z,1016.16
2022-10-09T00:47:44.719Z,1016.13
2022-10-09T00:48:44.771Z,1016.16
2022-10-09T00:49:44.821Z,1016.11
2022-10-09T00:50:44.871Z,1016.14
2022-10-09T00:51:44.942Z,1016.15
2022-10-09T00:52:44.972Z,1016.11
2022-10-09T00:53:45.020Z,1016.11
2022-10-09T00:54:45.071Z,1016.12
2022-10-09T00:55:45.120Z,1016.12
2022-10-09T00:56:45.172Z,1016.16
2022-10-09T00:57:45.221Z,1016.12
2022-10-09T00:58:45.272Z,1016.18
2022-10-09T00:59:45.324Z,1016.15
2022-10-09T01:00:45.373Z,1016.17
2022-10-09T01:01:45.643Z,1016.18
2022-10-09T01:02:45.588Z,1016.19
2022-10-09T01:03:45.521Z,1016.20
2022-10-09T01:04:45.573Z,1016.19
2022-10-09T01:05:45.622Z,1016.22
2022-10-09T01:06:45.672Z,1016.17
2022-10-09T01:07:45.741Z,1016.17
2022-10-09T01:08:45.773Z,1016.20
2022-10-09T01:09:45.823Z,1016.20
2022-10-09T01:10:45.873Z,1016.17
2022-10-09T01:11:45.924Z,1016.16
2022-10-09T01:12:46.176Z,1016.15
2022-10-09T01:13:46.023Z,1016.12
2022-10-09T01:14:46.072Z,1016.15
2022-10-09T01:15:46.208Z,1016.14
2022-10-09T01:16:46.173Z,1016.16
2022-10-09T01:17:46.222Z,1016.17
2022-10-09T01:18:46.274Z,1016.12
2022-10-09T01:19:46.327Z,1016.09
2022-10-09T01:20:46.375Z,1016.05
2022-10-09T01:21:46.423Z,1016.02
2022-10-09T01:22:46.873Z,1016.07
2022-10-09T01:23:46.542Z,1016.10
2022-10-09T01:24:46.576Z,1016.07
2022-10-09T01:25:46.629Z,1016.07
2022-10-09T01:26:46.673Z,1016.06
2022-10-09T01:27:46.722Z,1016.04
2022-10-09T01:28:46.858Z,1016.04
2022-10-09T01:29:46.823Z,1016.04
2022-10-09T01:30:46.971Z,1016.02
2022-10-09T01:31:46.923Z,1016.02
2022-10-09T01:32:47.330Z,1015.97
2022-10-09T01:33:47.024Z,1015.94
2022-10-09T01:34:47.075Z,1015.95
2022-10-09T01:35:47.125Z,1015.94
2022-10-09T01:36:47.176Z,1015.96
2022-10-09T01:37:47.223Z,1015.97
2022-10-09T01:38:47.276Z,1015.94
2022-10-09T01:39:47.341Z,1015.92
2022-10-09T01:40:47.373Z,1015.90
2022-10-09T01:41:47.421Z,1015.88
2022-10-09T01:42:47.930Z,1015.88
2022-10-09T01:43:47.522Z,1015.88
2022-10-09T01:44:47.573Z,1015.92
2022-10-09T01:45:47.621Z,1015.87
2022-10-09T01:46:47.672Z,1015.83
2022-10-09T01:47:47.721Z,1015.83
2022-10-09T01:48:47.772Z,1015.91
2022-10-09T01:49:47.821Z,1015.87
2022-10-09T01:50:47.874Z,1015.84
2022-10-09T01:51:47.920Z,1015.82
2022-10-09T01:52:48.208Z,1015.84
2022-10-09T01:53:48.021Z,1015.84
2022-10-09T01:54:48.071Z,1015.85
2022-10-09T01:55:48.142Z,1015.85
2022-10-09T01:56:48.171Z,1015.87
2022-10-09T01:57:48.220Z,1015.83
2022-10-09T01:58:48.270Z,1015.85
2022-10-09T01:59:48.322Z,1015.85
2022-10-09T02:00:48.373Z,1015.84
2022-10-09T02:01:48.597Z,1015.77
2022-10-09T02:02:48.953Z,1015.76
2022-10-09T02:03:48.517Z,1015.75
2022-10-09T02:04:48.570Z,1015.75
2022-10-09T02:05:48.619Z,1015.67
2022-10-09T02:06:48.673Z,1015.73
2022-10-09T02:07:48.718Z,1015.69
2022-10-09T02:08:48.771Z,1015.65
2022-10-09T02:09:48.817Z,1015.66
2022-10-09T02:10:48.868Z,1015.65
2022-10-09T02:11:48.936Z,1015.65
2022-10-09T02:12:49.212Z,1015.65
2022-10-09T02:13:49.017Z,1015.65
2022-10-09T02:14:49.067Z,1015.64
2022-10-09T02:15:49.183Z,1015.66
2022-10-09T02:16:49.168Z,1015.66
2022-10-09T02:17:49.217Z,1015.65
2022-10-09T02:18:49.266Z,1015.66
2022-10-09T02:19:49.315Z,1015.68
2022-10-09T02:20:49.366Z,1015.63
2022-10-09T02:21:53.675Z,1015.61
2022-10-09T02:22:49.782Z,1015.60
2022-10-09T02:23:49.513Z,1015.61
2022-10-09T02:24:49.564Z,1015.62
2022-10-09T02:25:49.614Z,1015.56
2022-10-09T02:26:49.663Z,1015.60
2022-10-09T02:27:49.729Z,1015.60
2022-10-09T02:28:49.818Z,1015.57
2022-10-09T02:29:49.814Z,1015.57
2022-10-09T02:30:49.914Z,1015.58
2022-10-09T02:31:49.916Z,1015.57
2022-10-09T02:32:50.231Z,1015.57
2022-10-09T02:33:50.010Z,1015.54
2022-10-09T02:34:50.061Z,1015.54
2022-10-09T02:35:50.113Z,1015.56
2022-10-09T02:36:50.163Z,1015.56
2022-10-09T02:37:50.210Z,1015.57
2022-10-09T02:38:50.261Z,1015.60
2022-10-09T02:39:50.313Z,1015.60
2022-10-09T02:40:50.361Z,1015.62
2022-10-09T02:41:50.409Z,1015.60
2022-10-09T02:42:50.813Z,1015.59
2022-10-09T02:43:50.530Z,1015.55
2022-10-09T02:44:50.560Z,1015.52
2022-10-09T02:45:50.608Z,1015.54
2022-10-09T02:46:50.775Z,1015.55
2022-10-09T02:47:50.707Z,1015.53
2022-10-09T02:48:50.757Z,1015.54
2022-10-09T02:49:50.806Z,1015.51
2022-10-09T02:50:50.856Z,1015.53
2022-10-09T02:51:50.908Z,1015.56
2022-10-09T02:52:51.389Z,1015.54
2022-10-09T02:53:51.004Z,1015.54
2022-10-09T02:54:51.055Z,1015.55
2022-10-09T02:55:51.106Z,1015.51
2022-10-09T02:56:51.155Z,1015.52
2022-10-09T02:57:51.204Z,1015.53
2022-10-09T02:58:51.253Z,1015.52
2022-10-09T02:59:51.321Z,1015.57
2022-10-09T03:00:51.354Z,1015.55
2022-10-09T03:01:51.507Z,1015.56
2022-10-09T03:02:52.088Z,1015.58
2022-10-09T03:03:51.501Z,1015.53
2022-10-09T03:04:51.559Z,1015.52
2022-10-09T03:05:51.601Z,1015.56
2022-10-09T03:06:51.653Z,1015.54
2022-10-09T03:07:51.712Z,1015.51
2022-10-09T03:08:51.751Z,1015.52
2022-10-09T03:09:51.800Z,1015.52
2022-10-09T03:10:51.850Z,1015.48
2022-10-09T03:11:51.897Z,1015.49
2022-10-09T03:12:52.203Z,1015.51
2022-10-09T03:13:52.001Z,1015.46
2022-10-09T03:14:52.048Z,1015.49
2022-10-09T03:15:52.204Z,1015.47
2022-10-09T03:16:52.148Z,1015.45
2022-10-09T03:17:52.197Z,1015.46
2022-10-09T03:18:52.249Z,1015.49
2022-10-09T03:19:52.295Z,1015.54
2022-10-09T03:20:52.346Z,1015.49
2022-10-09T03:21:52.396Z,1015.50
2022-10-09T03:22:52.444Z,1015.53
2022-10-09T03:23:52.500Z,1015.51
2022-10-09T03:24:52.544Z,1015.50
2022-10-09T03:25:52.597Z,1015.46
2022-10-09T03:26:52.645Z,1015.52
2022-10-09T03:27:52.694Z,1015.52
2022-10-09T03:28:52.828Z,1015.51
2022-10-09T03:29:52.793Z,1015.54
2022-10-09T03:30:52.843Z,1015.56
2022-10-09T03:31:53.644Z,1015.53
2022-10-09T03:32:52.942Z,1015.51
2022-10-09T03:33:52.995Z,1015.54
2022-10-09T03:34:53.040Z,1015.55
2022-10-09T03:35:53.092Z,1015.54
2022-10-09T03:36:53.140Z,1015.53
2022-10-09T03:37:53.191Z,1015.53
2022-10-09T03:38:53.239Z,1015.51
2022-10-09T03:39:53.291Z,1015.53
2022-10-09T03:40:53.339Z,1015.55
2022-10-09T03:41:53.390Z,1015.52
2022-10-09T03:42:53.438Z,1015.56
2022-10-09T03:43:53.491Z,1015.51
2022-10-09T03:44:53.538Z,1015.49
2022-10-09T03:45:53.591Z,1015.49
2022-10-09T03:46:53.699Z,1015.51
2022-10-09T03:47:53.720Z,1015.52
2022-10-09T03:48:53.738Z,1015.52
2022-10-09T03:49:53.799Z,1015.47
2022-10-09T03:50:53.835Z,1015.46
2022-10-09T03:51:53.889Z,1015.44
2022-10-09T03:52:53.936Z,1015.45
2022-10-09T03:53:53.987Z,1015.45
2022-10-09T03:54:54.033Z,1015.46
2022-10-09T03:55:54.085Z,1015.43
2022-10-09T03:56:54.134Z,1015.43
2022-10-09T03:57:54.185Z,1015.42
2022-10-09T03:58:54.233Z,1015.41
2022-10-09T03:59:54.285Z,1015.38
2022-10-09T04:00:54.399Z,1015.38
2022-10-09T04:01:54.388Z,1015.40
2022-10-09T04:02:54.534Z,1015.41
2022-10-09T04:03:54.502Z,1015.45
2022-10-09T04:04:54.532Z,1015.42
2022-10-09T04:05:54.582Z,1015.41
2022-10-09T04:06:54.629Z,1015.43
2022-10-09T04:07:54.682Z,1015.41
2022-10-09T04:08:54.730Z,1015.36
2022-10-09T04:09:54.781Z,1015.35
2022-10-09T04:10:54.829Z,1015.40
2022-10-09T04:11:54.880Z,1015.38
2022-10-09T04:12:54.929Z,1015.41
2022-10-09T04:13:54.981Z,1015.44
2022-10-09T04:14:55.029Z,1015.40
2022-10-09T04:15:55.137Z,1015.43
2022-10-09T04:16:55.128Z,1015.45
2022-10-09T04:17:55.178Z,1015.48
2022-10-09T04:18:55.225Z,1015.48
2022-10-09T04:19:55.295Z,1015.51
2022-10-09T04:20:55.325Z,1015.49
2022-10-09T04:21:55.376Z,1015.45
2022-10-09T04:22:55.423Z,1015.44
2022-10-09T04:23:55.478Z,1015.47
2022-10-09T04:24:55.523Z,1015.46
2022-10-09T04:25:55.575Z,1015.43
2022-10-09T04:26:55.623Z,1015.44
2022-10-09T04:27:55.674Z,1015.40
2022-10-09T04:28:55.723Z,1015.40
2022-10-09T04:29:55.773Z,1015.42
2022-10-09T04:30:55.822Z,1015.41
2022-10-09T04:31:55.879Z,1015.42
2022-10-09T04:32:55.920Z,1015.39
2022-10-09T04:33:55.973Z,1015.39
2022-10-09T04:34:56.019Z,1015.42
2022-10-09T04:35:56.088Z,1015.46
2022-10-09T04:36:56.119Z,1015.45
2022-10-09T04:37:56.169Z,1015.42
2022-10-09T04:38:56.221Z,1015.38
2022-10-09T04:39:56.270Z,1015.38
2022-10-09T04:40:56.316Z,1015.40
2022-10-09T04:41:56.368Z,1015.42
2022-10-09T04:42:56.416Z,1015.40
2022-10-09T04:43:56.466Z,1015.41
2022-10-09T04:44:56.516Z,1015.42
2022-10-09T04:45:56.668Z,1015.42
2022-10-09T04:46:56.613Z,1015.41
2022-10-09T04:47:56.665Z,1015.39
2022-10-09T04:48:56.716Z,1015.40
2022-10-09T04:49:56.766Z,1015.40
2022-10-09T04:50:56.818Z,1015.43
2022-10-09T04:51:56.883Z,1015.40
2022-10-09T04:52:56.913Z,1015.39
2022-10-09T04:54:00.428Z,1015.40
2022-10-09T04:54:57.012Z,1015.40
2022-10-09T04:55:57.063Z,1015.44
2022-10-09T04:56:57.121Z,1015.42
2022-10-09T04:57:57.163Z,1015.45
2022-10-09T04:58:57.211Z,1015.44
2022-10-09T04:59:57.262Z,1015.47
2022-10-09T05:00:57.414Z,1015.44
2022-10-09T05:01:57.455Z,1015.44
2022-10-09T05:02:57.409Z,1015.43
2022-10-09T05:03:57.461Z,1015.45
2022-10-09T05:04:57.510Z,1015.48
2022-10-09T05:05:57.560Z,1015.46
2022-10-09T05:06:57.608Z,1015.45
2022-10-09T05:07:57.679Z,1015.45
2022-10-09T05:08:57.708Z,1015.43
2022-10-09T05:09:57.762Z,1015.47
2022-10-09T05:10:57.807Z,1015.50
2022-10-09T05:11:57.858Z,1015.47
2022-10-09T05:12:57.908Z,1015.45
2022-10-09T05:13:57.959Z,1015.43
2022-10-09T05:14:58.007Z,1015.42
2022-10-09T05:15:58.185Z,1015.48
2022-10-09T05:17:12.933Z,1015.49
2022-10-09T05:17:58.166Z,1015.48
2022-10-09T05:18:58.215Z,1015.46
2022-10-09T05:19:58.258Z,1015.47
2022-10-09T05:20:58.377Z,1015.49
2022-10-09T05:21:58.356Z,1015.46
2022-10-09T05:22:58.405Z,1015.46
2022-10-09T05:23:58.474Z,1015.47
2022-10-09T05:24:58.505Z,1015.46
2022-10-09T05:25:58.607Z,1015.44
2022-10-09T05:26:58.603Z,1015.46
2022-10-09T05:27:58.655Z,1015.47
2022-10-09T05:28:58.703Z,1015.47
2022-10-09T05:29:58.756Z,1015.45
2022-10-09T05:30:58.802Z,1015.43
2022-10-09T05:31:58.905Z,1015.46
2022-10-09T05:32:58.902Z,1015.44
2022-10-09T05:33:58.953Z,1015.44
2022-10-09T05:34:59.005Z,1015.40
2022-10-09T05:35:59.052Z,1015.42
2022-10-09T05:36:59.101Z,1015.42
2022-10-09T05:37:59.151Z,1015.41
2022-10-09T05:38:59.198Z,1015.42
2022-10-09T05:39:59.268Z,1015.42
2022-10-09T05:40:59.298Z,1015.41
2022-10-09T05:41:59.349Z,1015.41
2022-10-09T05:42:59.397Z,1015.38
2022-10-09T05:43:59.448Z,1015.43
2022-10-09T05:44:59.498Z,1015.42
2022-10-09T05:45:59.607Z,1015.38
2022-10-09T05:46:59.594Z,1015.41
2022-10-09T05:47:59.647Z,1015.41
2022-10-09T05:48:59.697Z,1015.37
2022-10-09T05:49:59.745Z,1015.33
2022-10-09T05:50:59.792Z,1015.43
2022-10-09T05:51:59.845Z,1015.39
2022-10-09T05:52:59.892Z,1015.37
2022-10-09T05:53:59.946Z,1015.35
2022-10-09T05:54:59.991Z,1015.41
2022-10-09T05:56:03.543Z,1015.39
2022-10-09T05:57:00.100Z,1015.34
2022-10-09T05:58:00.140Z,1015.34
2022-10-09T05:59:00.192Z,1015.34
2022-10-09T06:00:00.243Z,1015.33
2022-10-09T06:01:00.381Z,1015.32
2022-10-09T06:02:00.448Z,1015.34
2022-10-09T06:03:00.387Z,1015.35
2022-10-09T06:04:00.436Z,1015.31
2022-10-09T06:05:00.485Z,1015.36
2022-10-09T06:06:00.535Z,1015.33
2022-10-09T06:07:00.584Z,1015.32
2022-10-09T06:08:00.636Z,1015.30
2022-10-09T06:09:00.683Z,1015.33
2022-10-09T06:10:00.738Z,1015.33
2022-10-09T06:11:00.781Z,1015.31
2022-10-09T06:12:00.851Z,1015.36
2022-10-09T06:13:00.880Z,1015.31
2022-10-09T06:14:00.931Z,1015.34
2022-10-09T06:15:00.981Z,1015.33
2022-10-09T06:16:01.029Z,1015.33
2022-10-09T06:17:01.124Z,1015.37
2022-10-09T06:18:01.129Z,1015.37
2022-10-09T06:19:01.176Z,1015.33
2022-10-09T06:20:01.228Z,1015.38
2022-10-09T06:21:01.275Z,1015.33
2022-10-09T06:22:01.329Z,1015.31
2022-10-09T06:23:01.374Z,1015.33
2022-10-09T06:24:01.424Z,1015.33
2022-10-09T06:25:01.474Z,1015.35
2022-10-09T06:26:01.527Z,1015.33
2022-10-09T06:27:01.573Z,1015.38
2022-10-09T06:28:01.641Z,1015.35
2022-10-09T06:29:01.687Z,1015.35
2022-10-09T06:30:01.722Z,1015.36
2022-10-09T06:31:01.839Z,1015.35
2022-10-09T06:32:01.821Z,1015.31
2022-10-09T06:33:01.869Z,1015.35
2022-10-09T06:34:01.920Z,1015.38
2022-10-09T06:35:01.971Z,1015.38
2022-10-09T06:36:09.837Z,1015.35
2022-10-09T06:37:02.068Z,1015.37
2022-10-09T06:38:02.121Z,1015.35
2022-10-09T06:39:02.166Z,1015.36
2022-10-09T06:40:02.218Z,1015.36
2022-10-09T06:41:02.266Z,1015.37
2022-10-09T06:42:02.318Z,1015.30
2022-10-09T06:43:02.365Z,1015.36
2022-10-09T06:44:02.434Z,1015.37
2022-10-09T06:45:02.467Z,1015.35
2022-10-09T06:46:02.589Z,1015.35
2022-10-09T06:47:02.576Z,1015.37
2022-10-09T06:48:02.614Z,1015.35
2022-10-09T06:49:02.664Z,1015.37
2022-10-09T06:50:02.714Z,1015.40
2022-10-09T06:51:02.762Z,1015.40
2022-10-09T06:52:02.812Z,1015.39
2022-10-09T06:53:02.861Z,1015.33
2022-10-09T06:54:02.912Z,1015.34
2022-10-09T06:55:02.963Z,1015.36
2022-10-09T06:56:03.013Z,1015.38
2022-10-09T06:57:03.059Z,1015.45
2022-10-09T06:58:03.112Z,1015.42
2022-10-09T06:59:03.160Z,1015.43
2022-10-09T07:00:03.227Z,1015.40
2022-10-09T07:01:03.326Z,1015.37
2022-10-09T07:02:03.507Z,1015.36
2022-10-09T07:03:03.390Z,1015.40
2022-10-09T07:04:03.409Z,1015.45
2022-10-09T07:05:03.458Z,1015.40
2022-10-09T07:06:03.508Z,1015.44
2022-10-09T07:07:03.556Z,1015.40
2022-10-09T07:08:03.609Z,1015.39
2022-10-09T07:09:03.656Z,1015.38
2022-10-09T07:10:03.708Z,1015.41
2022-10-09T07:11:03.756Z,1015.40
2022-10-09T07:12:03.807Z,1015.41
2022-10-09T07:13:03.856Z,1015.40
2022-10-09T07:14:03.914Z,1015.41
2022-10-09T07:17:40.280Z,1015.41
2022-10-09T07:18:40.311Z,1015.41
2022-10-09T07:19:40.361Z,1015.38
2022-10-09T07:20:40.411Z,1015.40
2022-10-09T07:21:40.461Z,1015.43
2022-10-09T07:22:40.512Z,1015.46
2022-10-09T07:23:40.561Z,1015.48
2022-10-09T07:24:40.610Z,1015.49
2022-10-09T07:25:40.663Z,1015.45
2022-10-09T07:26:40.709Z,1015.43
2022-10-09T07:27:40.762Z,1015.43
2022-10-09T07:28:40.842Z,1015.46
2022-10-09T07:29:40.862Z,1015.49
2022-10-09T07:30:40.956Z,1015.49
2022-10-09T07:31:40.962Z,1015.48
2022-10-09T07:32:41.011Z,1015.46
2022-10-09T07:33:41.089Z,1015.51
2022-10-09T07:34:41.112Z,1015.50
2022-10-09T07:35:41.163Z,1015.51
2022-10-09T07:36:41.212Z,1015.46
2022-10-09T07:37:41.265Z,1015.48
2022-10-09T07:38:41.314Z,1015.46
2022-10-09T07:39:44.860Z,1015.47
2022-10-09T07:40:41.415Z,1015.50
2022-10-09T07:41:41.466Z,1015.45
2022-10-09T07:42:41.515Z,1015.45
2022-10-09T07:43:41.568Z,1015.45
2022-10-09T07:44:41.618Z,1015.45
2022-10-09T07:45:41.670Z,1015.43
2022-10-09T07:46:41.785Z,1015.50
2022-10-09T07:47:41.772Z,1015.50
2022-10-09T07:48:41.822Z,1015.47
2022-10-09T07:49:41.890Z,1015.50
2022-10-09T07:50:41.923Z,1015.46
2022-10-09T07:51:41.975Z,1015.48
2022-10-09T07:52:42.025Z,1015.47
2022-10-09T07:53:42.078Z,1015.45
2022-10-09T07:54:42.130Z,1015.42
2022-10-09T07:55:42.183Z,1015.40
2022-10-09T07:56:42.230Z,1015.44
2022-10-09T07:57:42.284Z,1015.39
2022-10-09T07:58:42.334Z,1015.41
2022-10-09T07:59:42.387Z,1015.42
2022-10-09T08:00:42.438Z,1015.43
2022-10-09T08:01:42.575Z,1015.42
2022-10-09T08:02:42.622Z,1015.40
2022-10-09T08:03:42.594Z,1015.40
2022-10-09T08:04:42.645Z,1015.42
2022-10-09T08:05:42.716Z,1015.40
2022-10-09T08:06:42.750Z,1015.39
2022-10-09T08:07:42.802Z,1015.41
2022-10-09T08:08:42.855Z,1015.43
2022-10-09T08:09:42.907Z,1015.40
2022-10-09T08:10:42.959Z,1015.46
2022-10-09T08:11:43.010Z,1015.45
2022-10-09T08:12:43.062Z,1015.39
2022-10-09T08:13:43.152Z,1015.32
2022-10-09T08:14:43.165Z,1015.29
2022-10-09T08:15:43.274Z,1015.29
2022-10-09T08:16:43.272Z,1015.30
2022-10-09T08:17:43.325Z,1015.30
2022-10-09T08:18:43.376Z,1015.30
2022-10-09T08:19:43.429Z,1015.31
2022-10-09T08:20:43.482Z,1015.26
2022-10-09T08:21:43.553Z,1015.27
2022-10-09T08:22:43.587Z,1015.26
2022-10-09T08:23:43.640Z,1015.23
2022-10-09T08:24:43.693Z,1015.22
2022-10-09T08:25:43.746Z,1015.20
2022-10-09T08:26:43.797Z,1015.19
2022-10-09T08:27:43.851Z,1015.20
2022-10-09T08:28:43.977Z,1015.20
2022-10-09T08:29:43.958Z,1015.19
2022-10-09T08:30:44.053Z,1015.21
2022-10-09T08:31:44.063Z,1015.21
2022-10-09T08:32:44.118Z,1015.19
2022-10-09T08:33:44.170Z,1015.16
2022-10-09T08:34:44.222Z,1015.16
2022-10-09T08:35:44.276Z,1015.16
2022-10-09T08:36:44.328Z,1015.14
2022-10-09T08:37:44.400Z,1015.15
2022-10-09T08:38:47.591Z,1015.15
2022-10-09T08:39:44.489Z,1015.15
2022-10-09T08:40:44.539Z,1015.15
2022-10-09T08:41:44.594Z,1015.17
2022-10-09T08:42:44.647Z,1015.10
2022-10-09T08:43:44.700Z,1015.07
2022-10-09T08:44:44.752Z,1015.02
2022-10-09T08:45:44.807Z,1015.01
2022-10-09T08:46:44.933Z,1014.97
2022-10-09T08:47:44.912Z,1014.97
2022-10-09T08:48:44.964Z,1014.97
2022-10-09T08:49:45.018Z,1014.94
2022-10-09T08:50:45.070Z,1014.97
2022-10-09T08:51:45.123Z,1014.97
2022-10-09T08:52:49.694Z,1014.96
2022-10-09T08:53:45.247Z,1014.91
2022-10-09T08:54:45.282Z,1014.93
2022-10-09T08:55:45.335Z,1014.91
2022-10-09T08:56:45.387Z,1014.91
2022-10-09T08:57:45.441Z,1014.94
2022-10-09T08:58:45.493Z,1014.90
2022-10-09T08:59:45.546Z,1014.92
2022-10-09T09:00:45.598Z,1014.87
2022-10-09T09:01:45.696Z,1014.86
2022-10-09T09:02:45.890Z,1014.83
2022-10-09T09:03:45.757Z,1014.84
2022-10-09T09:04:45.808Z,1014.79
2022-10-09T09:05:45.862Z,1014.74
2022-10-09T09:06:45.913Z,1014.71
2022-10-09T09:07:45.967Z,1014.73
2022-10-09T09:08:46.019Z,1014.71
2022-10-09T09:09:46.090Z,1014.67
2022-10-09T09:10:46.124Z,1014.69
2022-10-09T09:11:46.177Z,1014.68
2022-10-09T09:12:46.602Z,1014.63
2022-10-09T09:13:46.282Z,1014.61
2022-10-09T09:14:46.335Z,1014.62
2022-10-09T09:15:46.445Z,1014.59
2022-10-09T09:16:46.439Z,1014.51
2022-10-09T09:17:46.493Z,1014.52
2022-10-09T09:18:46.547Z,1014.51
2022-10-09T09:19:46.598Z,1014.49
2022-10-09T09:20:46.650Z,1014.49
2022-10-09T09:21:46.705Z,1014.45
2022-10-09T09:22:47.118Z,1014.38
2022-10-09T09:23:46.808Z,1014.37
2022-10-09T09:24:46.859Z,1014.35
2022-10-09T09:25:46.933Z,1014.38
2022-10-09T09:26:46.966Z,1014.34
2022-10-09T09:27:47.019Z,1014.33
2022-10-09T09:28:47.125Z,1014.28
2022-10-09T09:29:47.129Z,1014.25
2022-10-09T09:30:47.179Z,1014.21
2022-10-09T09:31:47.231Z,1014.22
2022-10-09T09:32:47.634Z,1014.17
2022-10-09T09:33:47.337Z,1014.17
2022-10-09T09:34:47.390Z,1014.18
2022-10-09T09:35:47.443Z,1014.14
2022-10-09T09:36:47.493Z,1014.12
2022-10-09T09:37:47.549Z,1014.04
2022-10-09T09:39:13.566Z,1014.03
2022-10-09T09:40:35.103Z,1014.04
2022-10-09T09:40:47.710Z,1014.01
2022-10-09T09:41:47.780Z,1013.97
2022-10-09T09:42:48.087Z,1013.96
2022-10-09T09:43:47.867Z,1013.91
2022-10-09T09:44:47.921Z,1013.92
2022-10-09T09:45:47.983Z,1013.92
2022-10-09T09:46:48.119Z,1013.89
2022-10-09T09:47:48.430Z,1013.86
2022-10-09T09:48:48.134Z,1013.87
2022-10-09T09:49:48.191Z,1013.85
2022-10-09T09:50:56.411Z,1013.82
2022-10-09T09:51:48.298Z,1013.79
2022-10-09T09:52:48.355Z,1013.81
2022-10-09T09:53:48.407Z,1013.78
2022-10-09T09:54:48.456Z,1013.80
2022-10-09T09:55:48.510Z,1013.78
2022-10-09T09:57:19.595Z,1013.76
2022-10-09T09:57:49.074Z,1013.71
2022-10-09T09:58:48.671Z,1013.71
2022-10-09T09:59:48.728Z,1013.70
2022-10-09T10:00:48.824Z,1013.68
2022-10-09T10:01:48.867Z,1013.64
2022-10-09T10:02:49.106Z,1013.65
2022-10-09T10:03:48.941Z,1013.58
2022-10-09T10:04:48.993Z,1013.60
2022-10-09T10:05:49.050Z,1013.53
2022-10-09T10:06:49.106Z,1013.57
2022-10-09T10:07:49.158Z,1013.56
2022-10-09T10:08:49.210Z,1013.52
2022-10-09T10:09:49.268Z,1013.56
2022-10-09T10:10:49.320Z,1013.54
2022-10-09T10:11:49.374Z,1013.51
2022-10-09T10:12:49.716Z,1013.47
2022-10-09T10:13:49.501Z,1013.50
2022-10-09T10:14:49.537Z,1013.52
2022-10-09T10:15:49.661Z,1013.47
2022-10-09T10:16:49.646Z,1013.43
2022-10-09T10:17:49.701Z,1013.43
2022-10-09T10:18:49.755Z,1013.39
2022-10-09T10:19:49.810Z,1013.34
2022-10-09T10:20:49.864Z,1013.31
2022-10-09T10:21:49.920Z,1013.34
2022-10-09T10:22:50.590Z,1013.34
2022-10-09T10:23:50.075Z,1013.31
2022-10-09T10:24:50.082Z,1013.29
2022-10-09T10:25:50.138Z,1013.28
2022-10-09T10:26:50.192Z,1013.29
2022-10-09T10:27:50.834Z,1013.25
2022-10-09T10:28:50.302Z,1013.26
2022-10-09T10:29:50.378Z,1013.27
2022-10-09T10:30:50.413Z,1013.25
2022-10-09T10:31:50.469Z,1013.20
2022-10-09T10:32:50.523Z,1013.18
2022-10-09T10:33:50.579Z,1013.20
2022-10-09T10:34:50.632Z,1013.15
2022-10-09T10:35:50.689Z,1013.17
2022-10-09T10:36:50.742Z,1013.15
2022-10-09T10:37:51.447Z,1013.12
2022-10-09T10:38:50.852Z,1013.14
2022-10-09T10:39:50.912Z,1013.10
2022-10-09T10:40:50.964Z,1013.08
2022-10-09T10:41:51.019Z,1013.06
2022-10-09T10:42:51.204Z,1013.04
2022-10-09T10:43:51.130Z,1013.05
2022-10-09T10:44:51.217Z,1013.03
2022-10-09T10:45:51.257Z,1013.03
2022-10-09T10:46:51.382Z,1013.03
2022-10-09T10:47:52.209Z,1013.00
2022-10-09T10:48:51.405Z,1012.99
2022-10-09T10:49:51.463Z,1012.99
2022-10-09T10:50:51.516Z,1012.97
2022-10-09T10:51:51.573Z,1012.99
2022-10-09T10:52:51.627Z,1013.02
2022-10-09T10:53:51.749Z,1013.01
2022-10-09T10:54:51.790Z,1013.13
2022-10-09T10:55:51.795Z,1013.42
2022-10-09T10:56:51.850Z,1014.08
2022-10-09T10:57:52.273Z,1014.52
2022-10-09T10:58:51.965Z,1014.57
2022-10-09T10:59:52.020Z,1014.59
2022-10-09T11:00:52.090Z,1014.59
2022-10-09T11:01:52.158Z,1014.59
2022-10-09T11:02:52.515Z,1014.58
2022-10-09T11:03:52.249Z,1014.58
2022-10-09T11:04:52.304Z,1014.58
2022-10-09T11:05:52.365Z,1014.57
2022-10-09T11:06:52.422Z,1014.56
2022-10-09T11:07:55.508Z,1014.50
2022-10-09T11:08:52.538Z,1014.48
2022-10-09T11:09:52.598Z,1014.54
2022-10-09T11:10:52.656Z,1014.50
2022-10-09T11:11:52.719Z,1014.53
2022-10-09T11:12:52.776Z,1014.49
2022-10-09T11:13:52.836Z,1014.47
2022-10-09T11:14:52.895Z,1014.45
2022-10-09T11:15:52.986Z,1014.47
2022-10-09T11:16:53.018Z,1014.41
2022-10-09T11:17:53.095Z,1014.39
2022-10-09T11:18:53.135Z,1014.41
2022-10-09T11:19:53.196Z,1014.32
2022-10-09T11:20:53.265Z,1014.34
2022-10-09T11:21:53.318Z,1014.30
2022-10-09T11:22:53.378Z,1014.27
2022-10-09T11:23:53.439Z,1014.22
2022-10-09T11:24:53.499Z,1014.17
2022-10-09T11:25:53.561Z,1014.17
2022-10-09T11:26:53.623Z,1014.16
2022-10-09T11:27:53.683Z,1014.09
2022-10-09T11:28:53.742Z,1014.09
2022-10-09T11:29:53.806Z,1014.06
2022-10-09T11:30:53.865Z,1014.02
2022-10-09T11:31:53.979Z,1013.98
2022-10-09T11:32:53.990Z,1013.99
2022-10-09T11:33:54.068Z,1013.97
2022-10-09T11:34:54.112Z,1013.92
2022-10-09T11:35:54.171Z,1013.89
2022-10-09T11:36:54.234Z,1013.93
2022-10-09T11:37:54.295Z,1013.91
2022-10-09T11:38:54.358Z,1013.93
2022-10-09T11:39:54.417Z,1013.89
2022-10-09T11:40:54.479Z,1013.94
2022-10-09T11:41:54.541Z,1013.94
2022-10-09T11:42:54.604Z,1013.95
2022-10-09T11:43:54.664Z,1013.99
2022-10-09T11:44:54.726Z,1014.11
2022-10-09T11:45:54.838Z,1014.18
2022-10-09T11:46:54.851Z,1014.30
2022-10-09T11:47:54.909Z,1014.47
2022-10-09T11:48:54.974Z,1014.68
2022-10-09T11:49:55.056Z,1014.90
2022-10-09T11:50:55.098Z,1015.15
2022-10-09T11:51:55.158Z,1015.54
2022-10-09T11:52:55.222Z,1016.05
2022-10-09T11:53:55.285Z,1016.70
2022-10-09T11:54:55.349Z,1017.55
2022-10-09T11:55:55.406Z,1018.40
2022-10-09T11:56:55.469Z,1019.37
2022-10-09T11:57:55.548Z,1020.27
2022-10-09T11:58:55.596Z,1021.32
2022-10-09T11:59:55.656Z,1022.26
2022-10-09T12:00:55.778Z,1023.28
2022-10-09T12:01:55.810Z,1024.11
2022-10-09T12:02:55.841Z,1024.51
2022-10-09T12:03:58.749Z,1024.82
2022-10-09T12:04:56.048Z,1024.80
2022-10-09T12:05:56.062Z,1024.85
2022-10-09T12:06:56.091Z,1025.00
2022-10-09T12:07:56.150Z,1024.83
2022-10-09T12:08:56.215Z,1024.72